Meteo Giornale » Osservazioni meteo Stati Uniti (USA) » Portland

ore: 07:53 - Osservazioni Meteo Portland
Lat. 45° 35' N Lon. 122° 36' W Alt. 8 metri s.l.m.

coperto

16 °C

Coperto

Temp. 24 Ore

16 °C

30 °C

Sud

11.1 Km/h

Dew point 12 °C

Umidità 77 %

Visibilità  11 Km

Il sole sorge alle ore 06:32

Il sole tramonta alle ore 19:48

Data e Ora Cielo e Fenomeni T °C DP °C Um. % Pres. hPa Vis. km Vento km/h
Oggi h: 07:53 coperto Coperto 16 12 77 1011 11 S 11.1
Oggi h: 06:53 coperto Coperto 16 12 77 1011 13 S/SE 7.4
Oggi h: 05:53 molto_nuvoloso Molto Nuvoloso 16 12 77 1011 10 S 14.8
Oggi h: 04:53 molto_nuvoloso Molto Nuvoloso 16 12 77 1011 10 S 11.1
Oggi h: 04:48 molto_nuvoloso Molto Nuvoloso 16 12 77 1011 10 S 13
Oggi h: 03:53 nuvoloso Nuvoloso 16 12 77 1010 10 S 11.1
Oggi h: 02:53 molto_nuvoloso Molto Nuvoloso 17 12 72 1010 10 S 14.8
Oggi h: 01:53 nuvoloso Nuvoloso 17 12 72 1010 10 S 7.4
Oggi h: 00:53 sereno Sereno 18 12 67 1009 10 S 9.3
Ieri h: 23:53 nuvoloso Nuvoloso 20 12 59 1009 10 S 16.7
Ieri h: 22:53 molto_nuvoloso Molto Nuvoloso 22 14 60 1008 10 N 0
Ieri h: 21:53 nuvoloso Nuvoloso 24 13 50 1007 10 N 5.5
Ieri h: 20:53 molto_nuvoloso Caligine 24 13 50 1007 6 N 5.5
Ieri h: 19:53 molto_nuvoloso Caligine 27 11 36 1006 6 S/SO 11.1
Ieri h: 18:53 molto_nuvoloso Molto Nuvoloso 29 10 30 1006 10 S/SO 14.8
Ieri h: 17:53 molto_nuvoloso Molto Nuvoloso 30 9 27 1006 10 N 5.5
Ieri h: 16:53 poco_nuvoloso Poco Nuvoloso 29 9 28 1006 10 N 0
Ieri h: 15:53 poco_nuvoloso Poco Nuvoloso 29 9 28 1007 10 N 7.4
Ieri h: 14:53 poco_nuvoloso Poco Nuvoloso 28 9 30 1007 10 N 7.4
Ieri h: 13:53 poco_nuvoloso Poco Nuvoloso 26 11 39 1008 10 O/NO 13
Ieri h: 12:53 poco_nuvoloso Poco Nuvoloso 24 11 43 1009 10 O/NO 11.1
Ieri h: 11:53 poco_nuvoloso Poco Nuvoloso 22 11 49 1009 10 O/NO 11.1
Ieri h: 10:53 poco_nuvoloso Poco Nuvoloso 19 12 63 1010 10 O 9.3
Ieri h: 09:53 poco_nuvoloso Poco Nuvoloso 18 11 63 1011 10 NO 11.1
Ieri h: 08:53 poco_nuvoloso Poco Nuvoloso 16 11 72 1011 10 N/NO 7.4